sensor_id;sensor_type;location;lat;lon;timestamp;P1;durP1;ratioP1;P2;durP2;ratioP2
44446;SDS011;30152;52.066;5.358;2023-07-31T07:34:39;11.55;;;6.22;;
44446;SDS011;30152;52.066;5.358;2023-07-31T07:37:05;12.13;;;6.07;;
44446;SDS011;30152;52.066;5.358;2023-07-31T07:39:31;10.68;;;6.03;;
44446;SDS011;30152;52.066;5.358;2023-07-31T07:41:56;10.35;;;5.95;;
44446;SDS011;30152;52.066;5.358;2023-07-31T07:44:22;11.30;;;5.95;;
44446;SDS011;30152;52.066;5.358;2023-07-31T07:46:48;8.95;;;5.65;;
44446;SDS011;30152;52.066;5.358;2023-07-31T07:49:13;10.68;;;5.65;;
44446;SDS011;30152;52.066;5.358;2023-07-31T07:51:39;8.80;;;5.38;;
44446;SDS011;30152;52.066;5.358;2023-07-31T07:54:04;11.32;;;4.90;;
44446;SDS011;30152;52.066;5.358;2023-07-31T07:56:31;7.95;;;4.50;;
44446;SDS011;30152;52.066;5.358;2023-07-31T07:58:58;8.30;;;4.05;;
44446;SDS011;30152;52.066;5.358;2023-07-31T08:01:23;6.32;;;3.92;;
44446;SDS011;30152;52.066;5.358;2023-07-31T08:03:49;8.43;;;4.38;;
44446;SDS011;30152;52.066;5.358;2023-07-31T08:06:15;7.45;;;3.92;;
44446;SDS011;30152;52.066;5.358;2023-07-31T08:08:40;7.07;;;3.78;;
44446;SDS011;30152;52.066;5.358;2023-07-31T08:11:06;6.35;;;3.47;;
44446;SDS011;30152;52.066;5.358;2023-07-31T08:13:32;7.45;;;3.80;;
44446;SDS011;30152;52.066;5.358;2023-07-31T08:15:57;6.85;;;3.70;;
44446;SDS011;30152;52.066;5.358;2023-07-31T08:18:23;8.40;;;3.50;;
44446;SDS011;30152;52.066;5.358;2023-07-31T08:20:49;7.70;;;3.80;;
44446;SDS011;30152;52.066;5.358;2023-07-31T08:23:14;8.10;;;4.00;;
44446;SDS011;30152;52.066;5.358;2023-07-31T08:25:40;7.93;;;4.32;;
44446;SDS011;30152;52.066;5.358;2023-07-31T08:28:06;6.55;;;3.72;;
44446;SDS011;30152;52.066;5.358;2023-07-31T08:30:32;5.95;;;3.67;;
44446;SDS011;30152;52.066;5.358;2023-07-31T08:32:58;5.78;;;3.38;;
44446;SDS011;30152;52.066;5.358;2023-07-31T08:35:24;6.72;;;3.70;;
44446;SDS011;30152;52.066;5.358;2023-07-31T08:37:51;7.15;;;3.60;;
44446;SDS011;30152;52.066;5.358;2023-07-31T08:40:16;6.65;;;2.75;;
44446;SDS011;30152;52.066;5.358;2023-07-31T08:42:46;6.10;;;3.22;;
44446;SDS011;30152;52.066;5.358;2023-07-31T08:45:14;6.07;;;3.10;;
44446;SDS011;30152;52.066;5.358;2023-07-31T08:47:42;5.80;;;2.90;;
44446;SDS011;30152;52.066;5.358;2023-07-31T08:50:15;6.72;;;3.20;;
44446;SDS011;30152;52.066;5.358;2023-07-31T08:52:42;5.93;;;3.65;;
44446;SDS011;30152;52.066;5.358;2023-07-31T08:55:08;6.25;;;3.08;;
44446;SDS011;30152;52.066;5.358;2023-07-31T08:57:35;6.18;;;3.30;;
44446;SDS011;30152;52.066;5.358;2023-07-31T09:00:03;7.90;;;3.53;;
44446;SDS011;30152;52.066;5.358;2023-07-31T09:02:46;6.70;;;3.97;;
44446;SDS011;30152;52.066;5.358;2023-07-31T09:05:23;8.07;;;4.05;;
44446;SDS011;30152;52.066;5.358;2023-07-31T09:07:51;7.25;;;4.10;;
44446;SDS011;30152;52.066;5.358;2023-07-31T09:10:17;6.18;;;3.85;;
44446;SDS011;30152;52.066;5.358;2023-07-31T09:12:42;8.13;;;4.25;;
44446;SDS011;30152;52.066;5.358;2023-07-31T09:15:08;7.85;;;4.07;;
44446;SDS011;30152;52.066;5.358;2023-07-31T09:17:35;6.40;;;4.30;;
44446;SDS011;30152;52.066;5.358;2023-07-31T09:20:18;8.07;;;4.32;;
44446;SDS011;30152;52.066;5.358;2023-07-31T09:22:45;8.02;;;4.68;;
44446;SDS011;30152;52.066;5.358;2023-07-31T09:25:19;7.82;;;4.40;;
44446;SDS011;30152;52.066;5.358;2023-07-31T09:28:08;7.90;;;4.82;;
44446;SDS011;30152;52.066;5.358;2023-07-31T09:30:46;8.07;;;4.10;;
44446;SDS011;30152;52.066;5.358;2023-07-31T09:33:13;8.65;;;4.60;;
44446;SDS011;30152;52.066;5.358;2023-07-31T09:35:39;9.13;;;4.40;;
44446;SDS011;30152;52.066;5.358;2023-07-31T09:38:11;9.88;;;4.55;;
44446;SDS011;30152;52.066;5.358;2023-07-31T09:40:39;7.78;;;4.20;;
44446;SDS011;30152;52.066;5.358;2023-07-31T09:43:07;7.65;;;4.03;;
44446;SDS011;30152;52.066;5.358;2023-07-31T09:45:35;8.32;;;4.40;;
44446;SDS011;30152;52.066;5.358;2023-07-31T09:48:03;8.40;;;3.90;;
44446;SDS011;30152;52.066;5.358;2023-07-31T09:50:29;7.20;;;3.83;;
44446;SDS011;30152;52.066;5.358;2023-07-31T09:52:55;7.00;;;3.20;;
44446;SDS011;30152;52.066;5.358;2023-07-31T09:55:21;6.97;;;3.60;;
44446;SDS011;30152;52.066;5.358;2023-07-31T09:57:47;6.18;;;3.20;;
44446;SDS011;30152;52.066;5.358;2023-07-31T10:00:17;7.70;;;4.00;;
44446;SDS011;30152;52.066;5.358;2023-07-31T10:02:47;8.65;;;4.32;;
44446;SDS011;30152;52.066;5.358;2023-07-31T10:05:13;7.78;;;4.15;;
44446;SDS011;30152;52.066;5.358;2023-07-31T10:07:41;11.30;;;5.00;;
44446;SDS011;30152;52.066;5.358;2023-07-31T10:10:10;9.20;;;4.50;;
44446;SDS011;30152;52.066;5.358;2023-07-31T10:12:37;9.07;;;4.50;;
44446;SDS011;30152;52.066;5.358;2023-07-31T10:15:04;8.63;;;4.43;;
44446;SDS011;30152;52.066;5.358;2023-07-31T10:17:30;11.32;;;5.35;;
44446;SDS011;30152;52.066;5.358;2023-07-31T10:19:57;11.85;;;5.57;;
44446;SDS011;30152;52.066;5.358;2023-07-31T10:22:26;10.63;;;6.18;;
44446;SDS011;30152;52.066;5.358;2023-07-31T10:24:52;12.40;;;6.18;;
44446;SDS011;30152;52.066;5.358;2023-07-31T10:27:19;12.48;;;6.03;;
44446;SDS011;30152;52.066;5.358;2023-07-31T10:29:44;11.55;;;6.35;;
44446;SDS011;30152;52.066;5.358;2023-07-31T10:32:12;11.57;;;6.50;;
44446;SDS011;30152;52.066;5.358;2023-07-31T10:34:40;12.57;;;6.28;;
44446;SDS011;30152;52.066;5.358;2023-07-31T10:37:22;10.98;;;6.63;;
44446;SDS011;30152;52.066;5.358;2023-07-31T10:39:56;11.02;;;6.18;;
44446;SDS011;30152;52.066;5.358;2023-07-31T10:42:29;11.77;;;6.28;;
44446;SDS011;30152;52.066;5.358;2023-07-31T10:44:57;13.07;;;6.80;;
44446;SDS011;30152;52.066;5.358;2023-07-31T10:47:24;11.70;;;6.00;;
44446;SDS011;30152;52.066;5.358;2023-07-31T10:49:50;15.93;;;6.47;;
44446;SDS011;30152;52.066;5.358;2023-07-31T10:52:19;12.45;;;6.03;;
44446;SDS011;30152;52.066;5.358;2023-07-31T10:54:49;8.85;;;5.15;;
44446;SDS011;30152;52.066;5.358;2023-07-31T10:57:19;9.77;;;5.30;;
44446;SDS011;30152;52.066;5.358;2023-07-31T10:59:48;10.15;;;5.57;;
44446;SDS011;30152;52.066;5.358;2023-07-31T11:02:24;10.35;;;5.60;;
44446;SDS011;30152;52.066;5.358;2023-07-31T11:05:06;8.63;;;4.20;;
44446;SDS011;30152;52.066;5.358;2023-07-31T11:07:50;8.38;;;4.13;;
44446;SDS011;30152;52.066;5.358;2023-07-31T11:10:19;10.85;;;4.75;;
44446;SDS011;30152;52.066;5.358;2023-07-31T11:12:45;9.73;;;4.05;;
44446;SDS011;30152;52.066;5.358;2023-07-31T11:15:11;8.05;;;3.80;;
44446;SDS011;30152;52.066;5.358;2023-07-31T11:17:38;11.05;;;4.00;;
44446;SDS011;30152;52.066;5.358;2023-07-31T11:20:05;8.63;;;4.45;;
44446;SDS011;30152;52.066;5.358;2023-07-31T11:22:32;8.85;;;4.20;;
44446;SDS011;30152;52.066;5.358;2023-07-31T11:24:58;8.88;;;4.60;;
44446;SDS011;30152;52.066;5.358;2023-07-31T11:27:27;9.50;;;5.05;;
44446;SDS011;30152;52.066;5.358;2023-07-31T11:29:53;9.50;;;4.70;;
44446;SDS011;30152;52.066;5.358;2023-07-31T11:32:26;10.05;;;4.88;;
44446;SDS011;30152;52.066;5.358;2023-07-31T11:34:54;11.48;;;5.68;;
44446;SDS011;30152;52.066;5.358;2023-07-31T11:37:20;10.10;;;4.70;;
44446;SDS011;30152;52.066;5.358;2023-07-31T11:39:59;9.35;;;5.15;;
44446;SDS011;30152;52.066;5.358;2023-07-31T11:42:25;9.70;;;5.57;;
44446;SDS011;30152;52.066;5.358;2023-07-31T11:44:51;9.32;;;5.30;;
44446;SDS011;30152;52.066;5.358;2023-07-31T11:47:16;11.10;;;6.25;;
44446;SDS011;30152;52.066;5.358;2023-07-31T11:49:43;10.23;;;5.72;;
44446;SDS011;30152;52.066;5.358;2023-07-31T11:52:09;14.38;;;6.30;;
44446;SDS011;30152;52.066;5.358;2023-07-31T11:54:36;11.57;;;5.65;;
44446;SDS011;30152;52.066;5.358;2023-07-31T11:57:02;12.20;;;5.85;;
44446;SDS011;30152;52.066;5.358;2023-07-31T11:59:29;13.57;;;6.18;;
44446;SDS011;30152;52.066;5.358;2023-07-31T12:01:55;10.38;;;5.80;;
44446;SDS011;30152;52.066;5.358;2023-07-31T12:04:21;14.13;;;6.43;;
44446;SDS011;30152;52.066;5.358;2023-07-31T12:06:47;9.98;;;6.15;;
44446;SDS011;30152;52.066;5.358;2023-07-31T12:09:14;10.90;;;5.95;;
44446;SDS011;30152;52.066;5.358;2023-07-31T12:11:46;8.90;;;5.22;;
44446;SDS011;30152;52.066;5.358;2023-07-31T12:14:25;10.15;;;4.70;;
44446;SDS011;30152;52.066;5.358;2023-07-31T12:16:54;9.35;;;4.93;;
44446;SDS011;30152;52.066;5.358;2023-07-31T12:19:21;7.15;;;4.63;;
44446;SDS011;30152;52.066;5.358;2023-07-31T12:21:47;10.27;;;5.15;;
44446;SDS011;30152;52.066;5.358;2023-07-31T12:24:13;7.78;;;4.90;;
44446;SDS011;30152;52.066;5.358;2023-07-31T12:26:38;10.10;;;4.57;;
44446;SDS011;30152;52.066;5.358;2023-07-31T12:29:06;7.80;;;4.53;;
44446;SDS011;30152;52.066;5.358;2023-07-31T12:31:33;8.20;;;4.97;;
44446;SDS011;30152;52.066;5.358;2023-07-31T12:33:59;8.65;;;5.07;;
44446;SDS011;30152;52.066;5.358;2023-07-31T12:36:26;9.10;;;5.53;;
44446;SDS011;30152;52.066;5.358;2023-07-31T12:38:53;8.50;;;4.70;;
44446;SDS011;30152;52.066;5.358;2023-07-31T12:41:21;10.20;;;5.95;;
44446;SDS011;30152;52.066;5.358;2023-07-31T12:43:46;11.90;;;6.10;;
44446;SDS011;30152;52.066;5.358;2023-07-31T12:46:12;9.15;;;6.30;;
44446;SDS011;30152;52.066;5.358;2023-07-31T12:48:38;11.35;;;6.35;;
44446;SDS011;30152;52.066;5.358;2023-07-31T12:51:05;9.93;;;5.85;;
44446;SDS011;30152;52.066;5.358;2023-07-31T12:53:31;11.23;;;6.43;;
44446;SDS011;30152;52.066;5.358;2023-07-31T12:55:57;10.48;;;6.50;;
44446;SDS011;30152;52.066;5.358;2023-07-31T12:58:23;13.35;;;6.90;;
44446;SDS011;30152;52.066;5.358;2023-07-31T13:00:49;10.05;;;6.20;;
44446;SDS011;30152;52.066;5.358;2023-07-31T13:03:15;10.52;;;6.38;;
44446;SDS011;30152;52.066;5.358;2023-07-31T13:05:40;10.35;;;6.53;;
44446;SDS011;30152;52.066;5.358;2023-07-31T13:08:06;10.02;;;6.68;;
44446;SDS011;30152;52.066;5.358;2023-07-31T13:10:32;8.80;;;6.30;;
44446;SDS011;30152;52.066;5.358;2023-07-31T13:12:58;9.93;;;6.47;;
44446;SDS011;30152;52.066;5.358;2023-07-31T13:15:23;8.50;;;5.80;;
44446;SDS011;30152;52.066;5.358;2023-07-31T13:17:49;9.48;;;5.80;;
44446;SDS011;30152;52.066;5.358;2023-07-31T13:20:14;10.27;;;5.68;;
44446;SDS011;30152;52.066;5.358;2023-07-31T13:22:40;9.30;;;5.80;;
44446;SDS011;30152;52.066;5.358;2023-07-31T13:25:06;10.02;;;5.85;;
44446;SDS011;30152;52.066;5.358;2023-07-31T13:27:32;8.18;;;5.10;;
44446;SDS011;30152;52.066;5.358;2023-07-31T13:29:59;8.18;;;4.80;;
44446;SDS011;30152;52.066;5.358;2023-07-31T13:32:24;8.45;;;4.55;;
44446;SDS011;30152;52.066;5.358;2023-07-31T13:34:51;7.60;;;4.30;;
44446;SDS011;30152;52.066;5.358;2023-07-31T13:37:16;7.22;;;4.15;;
44446;SDS011;30152;52.066;5.358;2023-07-31T13:39:43;9.38;;;4.97;;
44446;SDS011;30152;52.066;5.358;2023-07-31T13:42:09;10.00;;;4.78;;
44446;SDS011;30152;52.066;5.358;2023-07-31T13:44:40;10.38;;;5.18;;
44446;SDS011;30152;52.066;5.358;2023-07-31T13:47:06;8.63;;;5.32;;
44446;SDS011;30152;52.066;5.358;2023-07-31T13:49:32;11.30;;;5.38;;
44446;SDS011;30152;52.066;5.358;2023-07-31T13:52:03;8.55;;;5.05;;
44446;SDS011;30152;52.066;5.358;2023-07-31T13:54:29;9.07;;;4.88;;
44446;SDS011;30152;52.066;5.358;2023-07-31T13:56:55;10.27;;;5.30;;
44446;SDS011;30152;52.066;5.358;2023-07-31T13:59:20;9.50;;;5.72;;
44446;SDS011;30152;52.066;5.358;2023-07-31T14:01:46;11.80;;;6.18;;
44446;SDS011;30152;52.066;5.358;2023-07-31T14:04:12;11.30;;;7.10;;
44446;SDS011;30152;52.066;5.358;2023-07-31T14:06:38;14.93;;;8.77;;
44446;SDS011;30152;52.066;5.358;2023-07-31T14:09:04;16.08;;;9.55;;
44446;SDS011;30152;52.066;5.358;2023-07-31T14:11:30;16.02;;;9.65;;
44446;SDS011;30152;52.066;5.358;2023-07-31T14:13:56;17.48;;;10.90;;
44446;SDS011;30152;52.066;5.358;2023-07-31T14:16:22;16.98;;;10.57;;
44446;SDS011;30152;52.066;5.358;2023-07-31T14:18:48;17.00;;;10.85;;
44446;SDS011;30152;52.066;5.358;2023-07-31T14:21:13;18.33;;;11.55;;
44446;SDS011;30152;52.066;5.358;2023-07-31T14:23:40;17.52;;;11.75;;
44446;SDS011;30152;52.066;5.358;2023-07-31T14:26:05;19.00;;;12.30;;
44446;SDS011;30152;52.066;5.358;2023-07-31T14:28:31;20.90;;;12.30;;
44446;SDS011;30152;52.066;5.358;2023-07-31T14:30:57;18.38;;;10.85;;
44446;SDS011;30152;52.066;5.358;2023-07-31T14:33:23;20.65;;;12.15;;
44446;SDS011;30152;52.066;5.358;2023-07-31T14:35:49;20.38;;;12.23;;
44446;SDS011;30152;52.066;5.358;2023-07-31T14:38:15;18.30;;;10.23;;
44446;SDS011;30152;52.066;5.358;2023-07-31T14:40:41;17.60;;;10.80;;
44446;SDS011;30152;52.066;5.358;2023-07-31T14:43:07;16.10;;;10.10;;
44446;SDS011;30152;52.066;5.358;2023-07-31T14:45:32;15.63;;;9.50;;
44446;SDS011;30152;52.066;5.358;2023-07-31T14:47:58;17.13;;;9.55;;
44446;SDS011;30152;52.066;5.358;2023-07-31T14:50:25;14.82;;;9.10;;
44446;SDS011;30152;52.066;5.358;2023-07-31T14:52:50;16.10;;;9.02;;
44446;SDS011;30152;52.066;5.358;2023-07-31T14:55:17;16.73;;;9.13;;
44446;SDS011;30152;52.066;5.358;2023-07-31T14:57:43;16.48;;;8.10;;
44446;SDS011;30152;52.066;5.358;2023-07-31T15:00:09;13.82;;;8.23;;
44446;SDS011;30152;52.066;5.358;2023-07-31T15:02:35;14.52;;;8.43;;
44446;SDS011;30152;52.066;5.358;2023-07-31T15:05:04;17.00;;;8.90;;
44446;SDS011;30152;52.066;5.358;2023-07-31T15:07:30;15.27;;;7.72;;
44446;SDS011;30152;52.066;5.358;2023-07-31T15:09:56;15.95;;;7.18;;
44446;SDS011;30152;52.066;5.358;2023-07-31T15:12:21;13.98;;;7.95;;
44446;SDS011;30152;52.066;5.358;2023-07-31T15:14:48;10.50;;;6.78;;
44446;SDS011;30152;52.066;5.358;2023-07-31T15:17:14;13.07;;;7.78;;
44446;SDS011;30152;52.066;5.358;2023-07-31T15:19:39;12.40;;;7.38;;
44446;SDS011;30152;52.066;5.358;2023-07-31T15:22:05;12.55;;;7.25;;
44446;SDS011;30152;52.066;5.358;2023-07-31T15:24:31;13.77;;;7.60;;
44446;SDS011;30152;52.066;5.358;2023-07-31T15:26:56;10.35;;;6.40;;
44446;SDS011;30152;52.066;5.358;2023-07-31T15:29:22;12.23;;;6.80;;
44446;SDS011;30152;52.066;5.358;2023-07-31T15:31:48;9.95;;;6.22;;
44446;SDS011;30152;52.066;5.358;2023-07-31T15:34:15;11.38;;;6.05;;
44446;SDS011;30152;52.066;5.358;2023-07-31T15:36:41;11.32;;;5.93;;
44446;SDS011;30152;52.066;5.358;2023-07-31T15:39:06;8.80;;;4.88;;
44446;SDS011;30152;52.066;5.358;2023-07-31T15:41:36;10.25;;;4.68;;
44446;SDS011;30152;52.066;5.358;2023-07-31T15:44:02;9.73;;;4.82;;
44446;SDS011;30152;52.066;5.358;2023-07-31T15:46:28;7.90;;;4.15;;
44446;SDS011;30152;52.066;5.358;2023-07-31T15:48:54;8.70;;;3.90;;
44446;SDS011;30152;52.066;5.358;2023-07-31T15:51:20;7.00;;;3.15;;
44446;SDS011;30152;52.066;5.358;2023-07-31T15:53:45;8.48;;;3.35;;
44446;SDS011;30152;52.066;5.358;2023-07-31T15:56:11;6.28;;;3.13;;
44446;SDS011;30152;52.066;5.358;2023-07-31T15:58:37;6.18;;;3.05;;
44446;SDS011;30152;52.066;5.358;2023-07-31T16:01:02;6.35;;;2.67;;
44446;SDS011;30152;52.066;5.358;2023-07-31T16:03:28;5.78;;;2.85;;
44446;SDS011;30152;52.066;5.358;2023-07-31T16:05:54;5.70;;;2.47;;
44446;SDS011;30152;52.066;5.358;2023-07-31T16:08:20;4.18;;;1.88;;
44446;SDS011;30152;52.066;5.358;2023-07-31T16:10:46;5.45;;;1.65;;
44446;SDS011;30152;52.066;5.358;2023-07-31T16:13:12;5.05;;;2.05;;
44446;SDS011;30152;52.066;5.358;2023-07-31T16:15:37;4.82;;;1.35;;
44446;SDS011;30152;52.066;5.358;2023-07-31T16:18:03;4.75;;;1.60;;
44446;SDS011;30152;52.066;5.358;2023-07-31T16:20:29;5.25;;;1.85;;
44446;SDS011;30152;52.066;5.358;2023-07-31T16:22:55;3.20;;;1.20;;
44446;SDS011;30152;52.066;5.358;2023-07-31T16:25:21;4.38;;;1.40;;
44446;SDS011;30152;52.066;5.358;2023-07-31T16:27:47;5.20;;;1.40;;
44446;SDS011;30152;52.066;5.358;2023-07-31T16:30:12;5.70;;;1.40;;
44446;SDS011;30152;52.066;5.358;2023-07-31T16:32:38;5.57;;;1.17;;
44446;SDS011;30152;52.066;5.358;2023-07-31T16:35:04;2.42;;;0.73;;
44446;SDS011;30152;52.066;5.358;2023-07-31T16:37:30;2.67;;;0.90;;
44446;SDS011;30152;52.066;5.358;2023-07-31T16:39:55;2.60;;;0.90;;
44446;SDS011;30152;52.066;5.358;2023-07-31T16:42:21;3.28;;;1.00;;
44446;SDS011;30152;52.066;5.358;2023-07-31T16:44:47;3.38;;;0.80;;
44446;SDS011;30152;52.066;5.358;2023-07-31T16:47:13;4.88;;;0.80;;
44446;SDS011;30152;52.066;5.358;2023-07-31T16:49:38;2.53;;;0.75;;
44446;SDS011;30152;52.066;5.358;2023-07-31T16:52:04;2.92;;;0.77;;
44446;SDS011;30152;52.066;5.358;2023-07-31T16:54:30;2.50;;;0.70;;
44446;SDS011;30152;52.066;5.358;2023-07-31T16:56:57;2.97;;;0.80;;
44446;SDS011;30152;52.066;5.358;2023-07-31T16:59:23;2.58;;;0.68;;
44446;SDS011;30152;52.066;5.358;2023-07-31T17:01:49;3.45;;;0.77;;
44446;SDS011;30152;52.066;5.358;2023-07-31T17:04:15;3.15;;;0.98;;
44446;SDS011;30152;52.066;5.358;2023-07-31T17:06:41;2.90;;;1.00;;
44446;SDS011;30152;52.066;5.358;2023-07-31T17:09:07;2.95;;;0.80;;
44446;SDS011;30152;52.066;5.358;2023-07-31T17:11:33;3.53;;;1.10;;
44446;SDS011;30152;52.066;5.358;2023-07-31T17:13:59;1.55;;;0.52;;
44446;SDS011;30152;52.066;5.358;2023-07-31T17:16:28;3.53;;;0.90;;
44446;SDS011;30152;52.066;5.358;2023-07-31T17:18:54;3.17;;;1.05;;
44446;SDS011;30152;52.066;5.358;2023-07-31T17:21:20;3.70;;;1.27;;
44446;SDS011;30152;52.066;5.358;2023-07-31T17:23:45;4.00;;;1.10;;
44446;SDS011;30152;52.066;5.358;2023-07-31T17:26:11;3.50;;;1.30;;
44446;SDS011;30152;52.066;5.358;2023-07-31T17:28:38;4.63;;;1.15;;
44446;SDS011;30152;52.066;5.358;2023-07-31T17:31:04;3.90;;;1.23;;
44446;SDS011;30152;52.066;5.358;2023-07-31T17:33:30;2.78;;;1.10;;
44446;SDS011;30152;52.066;5.358;2023-07-31T17:35:56;3.80;;;1.33;;
44446;SDS011;30152;52.066;5.358;2023-07-31T17:38:21;6.10;;;1.40;;
44446;SDS011;30152;52.066;5.358;2023-07-31T17:40:47;4.50;;;1.20;;
44446;SDS011;30152;52.066;5.358;2023-07-31T17:43:12;2.90;;;0.98;;
44446;SDS011;30152;52.066;5.358;2023-07-31T17:45:38;3.00;;;1.05;;
44446;SDS011;30152;52.066;5.358;2023-07-31T17:48:05;3.05;;;0.90;;
44446;SDS011;30152;52.066;5.358;2023-07-31T17:50:30;3.10;;;1.10;;
44446;SDS011;30152;52.066;5.358;2023-07-31T17:52:56;2.75;;;1.10;;
44446;SDS011;30152;52.066;5.358;2023-07-31T17:55:22;3.80;;;0.95;;
44446;SDS011;30152;52.066;5.358;2023-07-31T17:57:47;2.97;;;1.20;;
44446;SDS011;30152;52.066;5.358;2023-07-31T18:00:13;5.13;;;1.13;;
44446;SDS011;30152;52.066;5.358;2023-07-31T18:02:39;3.38;;;1.02;;
44446;SDS011;30152;52.066;5.358;2023-07-31T18:05:05;3.67;;;1.00;;
44446;SDS011;30152;52.066;5.358;2023-07-31T18:07:32;3.47;;;0.88;;
44446;SDS011;30152;52.066;5.358;2023-07-31T18:09:57;3.60;;;1.17;;
44446;SDS011;30152;52.066;5.358;2023-07-31T18:12:25;3.08;;;0.90;;
44446;SDS011;30152;52.066;5.358;2023-07-31T18:14:51;4.00;;;0.90;;
44446;SDS011;30152;52.066;5.358;2023-07-31T18:17:17;3.33;;;0.80;;
44446;SDS011;30152;52.066;5.358;2023-07-31T18:19:43;2.65;;;0.80;;
44446;SDS011;30152;52.066;5.358;2023-07-31T18:22:08;3.45;;;0.85;;
44446;SDS011;30152;52.066;5.358;2023-07-31T18:24:34;3.38;;;0.90;;
44446;SDS011;30152;52.066;5.358;2023-07-31T18:27:00;2.88;;;0.98;;
44446;SDS011;30152;52.066;5.358;2023-07-31T18:29:26;3.03;;;1.00;;
44446;SDS011;30152;52.066;5.358;2023-07-31T18:31:51;2.20;;;0.85;;
44446;SDS011;30152;52.066;5.358;2023-07-31T18:34:17;4.22;;;1.02;;
44446;SDS011;30152;52.066;5.358;2023-07-31T18:36:43;3.58;;;1.10;;
44446;SDS011;30152;52.066;5.358;2023-07-31T18:39:09;3.15;;;1.17;;
44446;SDS011;30152;52.066;5.358;2023-07-31T18:41:35;4.35;;;1.17;;
44446;SDS011;30152;52.066;5.358;2023-07-31T18:44:00;4.15;;;1.05;;
44446;SDS011;30152;52.066;5.358;2023-07-31T18:46:26;3.08;;;1.20;;
44446;SDS011;30152;52.066;5.358;2023-07-31T18:48:52;4.22;;;1.20;;
44446;SDS011;30152;52.066;5.358;2023-07-31T18:51:18;4.50;;;1.38;;
44446;SDS011;30152;52.066;5.358;2023-07-31T18:53:43;3.70;;;1.40;;
44446;SDS011;30152;52.066;5.358;2023-07-31T18:56:09;3.70;;;1.05;;
44446;SDS011;30152;52.066;5.358;2023-07-31T18:58:35;5.32;;;1.70;;
44446;SDS011;30152;52.066;5.358;2023-07-31T19:01:01;4.13;;;1.58;;
44446;SDS011;30152;52.066;5.358;2023-07-31T19:03:27;7.18;;;1.85;;
44446;SDS011;30152;52.066;5.358;2023-07-31T19:05:59;5.43;;;1.67;;
44446;SDS011;30152;52.066;5.358;2023-07-31T19:08:30;7.20;;;1.70;;
44446;SDS011;30152;52.066;5.358;2023-07-31T19:11:00;5.60;;;1.80;;
44446;SDS011;30152;52.066;5.358;2023-07-31T19:13:26;5.57;;;1.50;;
44446;SDS011;30152;52.066;5.358;2023-07-31T19:15:52;7.53;;;1.80;;
44446;SDS011;30152;52.066;5.358;2023-07-31T19:18:18;7.28;;;2.40;;
44446;SDS011;30152;52.066;5.358;2023-07-31T19:20:44;5.15;;;2.10;;
44446;SDS011;30152;52.066;5.358;2023-07-31T19:23:10;5.38;;;2.17;;
44446;SDS011;30152;52.066;5.358;2023-07-31T19:25:36;8.10;;;2.33;;
44446;SDS011;30152;52.066;5.358;2023-07-31T19:28:02;6.70;;;2.15;;
44446;SDS011;30152;52.066;5.358;2023-07-31T19:30:28;7.45;;;2.17;;
44446;SDS011;30152;52.066;5.358;2023-07-31T19:32:53;5.78;;;2.08;;
44446;SDS011;30152;52.066;5.358;2023-07-31T19:35:19;5.38;;;2.13;;
44446;SDS011;30152;52.066;5.358;2023-07-31T19:37:45;4.32;;;1.73;;
44446;SDS011;30152;52.066;5.358;2023-07-31T19:40:10;7.43;;;2.47;;
44446;SDS011;30152;52.066;5.358;2023-07-31T19:42:36;4.20;;;1.80;;
44446;SDS011;30152;52.066;5.358;2023-07-31T19:45:03;6.78;;;2.45;;
44446;SDS011;30152;52.066;5.358;2023-07-31T19:47:29;6.25;;;2.35;;
44446;SDS011;30152;52.066;5.358;2023-07-31T19:49:57;7.78;;;2.75;;
44446;SDS011;30152;52.066;5.358;2023-07-31T19:52:23;6.38;;;2.33;;
44446;SDS011;30152;52.066;5.358;2023-07-31T19:54:49;5.28;;;2.53;;
44446;SDS011;30152;52.066;5.358;2023-07-31T19:57:15;9.48;;;3.10;;
44446;SDS011;30152;52.066;5.358;2023-07-31T19:59:41;10.98;;;3.22;;
44446;SDS011;30152;52.066;5.358;2023-07-31T20:02:07;9.60;;;3.45;;
44446;SDS011;30152;52.066;5.358;2023-07-31T20:04:33;6.57;;;3.03;;
44446;SDS011;30152;52.066;5.358;2023-07-31T20:06:59;9.73;;;3.40;;
44446;SDS011;30152;52.066;5.358;2023-07-31T20:09:25;7.32;;;3.08;;
44446;SDS011;30152;52.066;5.358;2023-07-31T20:11:51;8.88;;;3.20;;
44446;SDS011;30152;52.066;5.358;2023-07-31T20:14:17;9.75;;;3.42;;
44446;SDS011;30152;52.066;5.358;2023-07-31T20:16:43;8.32;;;3.53;;
44446;SDS011;30152;52.066;5.358;2023-07-31T20:19:09;7.78;;;3.55;;
44446;SDS011;30152;52.066;5.358;2023-07-31T20:21:35;7.18;;;3.10;;
44446;SDS011;30152;52.066;5.358;2023-07-31T20:24:07;8.70;;;3.17;;
44446;SDS011;30152;52.066;5.358;2023-07-31T20:26:34;8.23;;;2.83;;
44446;SDS011;30152;52.066;5.358;2023-07-31T20:29:00;10.27;;;3.75;;
